Airfield :
LOGIN :

Register | Disclaimer

   EN    FR    IT 

 










Legend :    VFR   Marginal VFR   IFR   Intensive IFR   Very Intensive IFR
Visi :
Ceiling :
>= 8 km
>= 3000ft
5 to 8 km
1000 to 3000 ft
1500m to 5 km
500 to 1000 ft
800 to 1500m
200 to 500 ft
< 800m
< 200 ft
Symbols :   Thunderstorms  Fog  Heavy snow  Heavy precipitations  Wind > 20 kt
SIGMETs :     Misc.  Thunderstorms  Icing  Turbulence  Mountain Waves  Volcanic Ashes






- Airport Elevation : 327 ft
- IATA code : BHX


EGBB - Birmingham

CURRENT METAR :
  • 300850Z 18006KT 7000 BKN003 09/09 Q1006

EXPIRED METARs :
  • 300820Z 17006KT 7000 BKN003 09/09 Q1006
  • 300750Z 18006KT 4000 BR BKN003 09/08 Q1007
  • 300720Z 17005KT 0600 R15/1100U FG VV/// 08/08 Q1007
  • 300650Z 15005KT 0300 R15/0800N FG VV/// 07/07 Q1007
  • 300620Z 15005KT 0300 R33/0500N FG VV/// 06/06 Q1007

TAF AMD TAF EGBB
Valid from the 30 at 07:00 until the 01 at 06:00 UTC


300734Z 3007/0106 VRB03KT 0300 FG VV///
BECMG 3007/3010 18012KT 9999 NSW SCT040
TEMPO 3010/3017 20020G35KT 6000 RA
PROB30
TEMPO 3011/3017 3000 +RA BKN012
BECMG 3017/3020 26012KT
PROB30
TEMPO 3017/3024 27015G25KT 8000 -SHRA
ATIS : +44 121 780 0910



MET'MAP, your aeronautical weather chart ! - Copyright ORBIFLY December 2007 - Disclaimer

ORBIFLY MET'MAP TEAM :

Programming & Development : Alexandra Zaïnal
Original concept : Baudouin d'Aumeries
Technical & hardware support : Manuel Goepfert
Assistance : Marc-Olivier Méhu




SOURCES & CREDITS :

   NOAA